createdAt,value
2017-08-27T00:00:18.192Z,15.83
2017-08-27T00:02:45.694Z,15.03
2017-08-27T00:05:13.156Z,15.80
2017-08-27T00:07:40.750Z,14.90
2017-08-27T00:10:08.213Z,15.57
2017-08-27T00:12:35.692Z,14.70
2017-08-27T00:15:03.197Z,15.20
2017-08-27T00:17:31.242Z,14.70
2017-08-27T00:19:58.824Z,15.13
2017-08-27T00:22:26.345Z,16.30
2017-08-27T00:24:53.851Z,15.37
2017-08-27T00:27:21.962Z,14.30
2017-08-27T00:29:49.566Z,14.70
2017-08-27T00:32:17.076Z,15.83
2017-08-27T00:34:44.568Z,15.40
2017-08-27T00:37:12.057Z,15.50
2017-08-27T00:39:39.555Z,15.43
2017-08-27T00:42:07.044Z,16.20
2017-08-27T00:44:34.830Z,15.83
2017-08-27T00:47:02.399Z,14.57
2017-08-27T00:49:35.050Z,15.07
2017-08-27T00:52:02.550Z,10.17
2017-08-27T00:54:30.026Z,11.20
2017-08-27T00:57:08.269Z,11.67
2017-08-27T00:59:40.642Z,13.13
2017-08-27T01:02:08.232Z,12.47
2017-08-27T01:04:35.699Z,12.50
2017-08-27T01:07:03.367Z,13.05
2017-08-27T01:09:30.943Z,13.83
2017-08-27T01:11:59.399Z,13.50
2017-08-27T01:14:26.919Z,12.63
2017-08-27T01:16:54.393Z,13.30
2017-08-27T01:19:28.952Z,13.35
2017-08-27T01:22:04.785Z,12.63
2017-08-27T01:24:44.682Z,13.00
2017-08-27T01:27:18.997Z,13.31
2017-08-27T01:29:53.229Z,12.20
2017-08-27T01:32:28.598Z,11.93
2017-08-27T01:34:57.478Z,12.70
2017-08-27T01:37:36.253Z,12.87
2017-08-27T01:40:03.849Z,12.70
2017-08-27T01:42:31.358Z,12.25
2017-08-27T01:45:03.619Z,14.23
2017-08-27T01:47:39.974Z,13.87
2017-08-27T01:50:11.068Z,14.93
2017-08-27T01:52:41.028Z,15.20
2017-08-27T01:55:09.203Z,15.70
2017-08-27T01:57:40.281Z,15.67
2017-08-27T02:00:07.772Z,15.50
2017-08-27T02:02:35.292Z,15.30
2017-08-27T02:05:02.783Z,16.37
2017-08-27T02:07:33.559Z,15.57
2017-08-27T02:10:02.786Z,15.27
2017-08-27T02:12:30.241Z,14.87
2017-08-27T02:15:19.595Z,15.03
2017-08-27T02:20:43.783Z,15.90
2017-08-27T02:23:11.293Z,14.40
2017-08-27T02:25:38.798Z,14.47
2017-08-27T02:28:06.270Z,15.10
2017-08-27T02:30:33.767Z,15.40
2017-08-27T02:33:01.246Z,15.20
2017-08-27T02:35:28.750Z,14.00
2017-08-27T02:37:56.208Z,14.13
2017-08-27T02:40:23.677Z,14.57
2017-08-27T02:42:51.191Z,14.33
2017-08-27T02:45:18.692Z,15.10
2017-08-27T02:47:46.192Z,14.73
2017-08-27T02:50:12.947Z,15.70
2017-08-27T02:52:40.437Z,14.60
2017-08-27T02:55:07.912Z,15.03
2017-08-27T02:57:35.402Z,15.30
2017-08-27T03:00:02.896Z,15.30
2017-08-27T03:02:30.371Z,14.97
2017-08-27T03:04:57.861Z,15.70
2017-08-27T03:07:25.368Z,15.20
2017-08-27T03:09:52.863Z,16.00
2017-08-27T03:12:20.328Z,15.63
2017-08-27T03:14:47.830Z,16.30
2017-08-27T03:17:15.314Z,14.87
2017-08-27T03:19:42.823Z,15.97
2017-08-27T03:22:10.808Z,16.17
2017-08-27T03:24:38.292Z,14.70
2017-08-27T03:27:05.811Z,15.40
2017-08-27T03:29:33.279Z,14.80
2017-08-27T03:32:00.800Z,15.40
2017-08-27T03:34:28.298Z,15.93
2017-08-27T03:36:55.809Z,15.00
2017-08-27T03:39:23.275Z,15.23
2017-08-27T03:41:50.733Z,15.23
2017-08-27T03:44:18.253Z,14.67
2017-08-27T03:46:46.327Z,14.20
2017-08-27T03:49:13.819Z,13.70
2017-08-27T03:51:41.292Z,13.43
2017-08-27T03:54:08.791Z,14.67
2017-08-27T03:56:36.278Z,13.50
2017-08-27T03:59:03.773Z,13.93
2017-08-27T04:01:31.278Z,14.25
2017-08-27T04:03:58.763Z,14.30
2017-08-27T04:06:26.304Z,13.83
2017-08-27T04:08:53.803Z,15.17
2017-08-27T04:11:22.278Z,14.73
2017-08-27T04:13:49.769Z,15.33
2017-08-27T04:16:17.234Z,14.37
2017-08-27T04:18:44.749Z,15.00
2017-08-27T04:21:12.204Z,15.27
2017-08-27T04:23:39.828Z,14.60
2017-08-27T04:26:07.294Z,15.40
2017-08-27T04:28:34.764Z,14.50
2017-08-27T04:31:02.259Z,14.33
2017-08-27T04:33:29.728Z,14.40
2017-08-27T04:35:57.248Z,14.17
2017-08-27T04:38:24.718Z,14.90
2017-08-27T04:40:52.266Z,14.25
2017-08-27T04:43:19.729Z,14.10
2017-08-27T04:45:47.223Z,14.20
2017-08-27T04:48:14.716Z,13.57
2017-08-27T04:50:42.178Z,14.87
2017-08-27T04:53:09.677Z,14.02
2017-08-27T04:55:37.144Z,14.43
2017-08-27T04:58:04.625Z,14.97
2017-08-27T05:00:32.077Z,16.13
2017-08-27T05:02:59.682Z,14.30
2017-08-27T05:05:27.191Z,15.50
2017-08-27T05:07:54.682Z,14.33
2017-08-27T05:10:23.356Z,14.67
2017-08-27T05:12:50.953Z,14.13
2017-08-27T05:15:18.434Z,14.70
2017-08-27T05:17:45.926Z,14.40
2017-08-27T05:20:13.424Z,15.57
2017-08-27T05:22:40.915Z,14.50
2017-08-27T05:25:08.418Z,14.53
2017-08-27T05:27:35.883Z,14.63
2017-08-27T05:30:03.374Z,14.90
2017-08-27T05:32:30.847Z,14.10
2017-08-27T05:34:58.340Z,14.93
2017-08-27T05:37:25.853Z,15.20
2017-08-27T05:39:54.164Z,14.50
2017-08-27T05:42:21.677Z,14.03
2017-08-27T05:44:49.135Z,14.63
2017-08-27T05:47:16.640Z,15.20
2017-08-27T05:49:44.118Z,15.10
2017-08-27T05:52:12.359Z,15.18
2017-08-27T05:54:39.829Z,15.27
2017-08-27T05:57:08.018Z,15.13
2017-08-27T05:59:35.485Z,15.80
2017-08-27T06:02:03.014Z,15.40
2017-08-27T06:04:30.509Z,15.30
2017-08-27T06:06:57.986Z,15.67
2017-08-27T06:09:25.487Z,16.40
2017-08-27T06:11:53.338Z,15.57
2017-08-27T06:14:20.825Z,15.80
2017-08-27T06:16:48.285Z,14.90
2017-08-27T06:19:15.785Z,16.43
2017-08-27T06:21:43.251Z,16.30
2017-08-27T06:24:10.739Z,16.30
2017-08-27T06:26:38.238Z,15.17
2017-08-27T06:29:05.733Z,15.50
2017-08-27T06:31:33.210Z,15.83
2017-08-27T06:34:00.693Z,14.83
2017-08-27T06:36:28.200Z,14.87
2017-08-27T06:38:55.658Z,15.10
2017-08-27T06:41:23.151Z,15.27
2017-08-27T06:43:50.630Z,15.20
2017-08-27T06:46:18.118Z,15.10
2017-08-27T06:48:45.579Z,14.77
2017-08-27T06:51:13.075Z,15.23
2017-08-27T06:53:40.595Z,15.40
2017-08-27T06:56:08.071Z,15.80
2017-08-27T06:58:35.557Z,17.10
2017-08-27T07:01:03.038Z,17.40
2017-08-27T07:03:30.568Z,17.50
2017-08-27T07:05:58.049Z,16.60
2017-08-27T07:08:25.529Z,15.90
2017-08-27T07:10:53.012Z,16.90
2017-08-27T07:13:20.482Z,15.67
2017-08-27T07:15:47.996Z,16.60
2017-08-27T07:18:15.479Z,17.57
2017-08-27T07:20:42.988Z,16.80
2017-08-27T07:23:10.452Z,15.80
2017-08-27T07:25:37.988Z,16.17
2017-08-27T07:28:05.460Z,15.23
2017-08-27T07:30:32.962Z,16.80
2017-08-27T07:33:00.459Z,16.90
2017-08-27T07:35:27.963Z,17.77
2017-08-27T07:37:55.434Z,17.70
2017-08-27T07:40:22.919Z,17.40
2017-08-27T07:42:50.418Z,17.60
2017-08-27T07:45:17.891Z,18.70
2017-08-27T07:47:45.429Z,18.30
2017-08-27T07:50:12.906Z,18.17
2017-08-27T07:52:40.404Z,19.43
2017-08-27T07:55:07.901Z,20.27
2017-08-27T07:57:35.416Z,19.37
2017-08-27T08:00:03.593Z,19.48
2017-08-27T08:02:32.038Z,19.10
2017-08-27T08:04:59.502Z,19.60
2017-08-27T08:07:27.151Z,18.70
2017-08-27T08:09:54.621Z,21.73
2017-08-27T08:12:22.103Z,20.40
2017-08-27T08:14:49.603Z,19.60
2017-08-27T08:17:17.061Z,20.20
2017-08-27T08:19:44.581Z,17.80
2017-08-27T08:22:12.062Z,20.20
2017-08-27T08:24:39.535Z,20.37
2017-08-27T08:27:07.756Z,19.30
2017-08-27T08:29:35.254Z,19.87
2017-08-27T08:32:02.782Z,19.77
2017-08-27T08:34:30.285Z,19.10
2017-08-27T08:36:58.696Z,19.80
2017-08-27T08:39:26.186Z,19.87
2017-08-27T08:41:53.673Z,20.97
2017-08-27T08:44:21.131Z,20.03
2017-08-27T08:46:50.581Z,20.17
2017-08-27T08:49:18.192Z,19.10
2017-08-27T08:51:45.690Z,19.27
2017-08-27T08:54:13.170Z,17.80
2017-08-27T08:56:40.675Z,19.77
2017-08-27T08:59:08.179Z,18.27
2017-08-27T09:01:35.705Z,19.40
2017-08-27T09:04:03.187Z,18.80
2017-08-27T09:06:30.682Z,18.53
2017-08-27T09:08:58.190Z,18.80
2017-08-27T09:11:25.669Z,17.90
2017-08-27T09:13:53.164Z,19.23
2017-08-27T09:16:20.655Z,18.40
2017-08-27T09:18:48.217Z,18.50
2017-08-27T09:21:15.677Z,17.70
2017-08-27T09:23:43.184Z,18.67
2017-08-27T09:26:10.686Z,18.20
2017-08-27T09:28:38.185Z,17.00
2017-08-27T09:31:05.711Z,16.40
2017-08-27T09:33:33.201Z,18.23
2017-08-27T09:36:00.689Z,16.83
2017-08-27T09:38:28.149Z,17.73
2017-08-27T09:40:55.644Z,17.40
2017-08-27T09:43:23.178Z,17.67
2017-08-27T09:45:50.682Z,16.60
2017-08-27T09:48:18.171Z,16.50
2017-08-27T09:50:45.670Z,17.97
2017-08-27T09:53:13.165Z,16.53
2017-08-27T09:55:40.650Z,16.85
2017-08-27T09:58:08.143Z,17.23
2017-08-27T10:00:35.647Z,16.90
2017-08-27T10:03:03.162Z,16.50
2017-08-27T10:05:31.349Z,16.27
2017-08-27T10:07:58.833Z,16.67
2017-08-27T10:10:26.354Z,17.13
2017-08-27T10:12:53.864Z,16.13
2017-08-27T10:15:21.357Z,15.77
2017-08-27T10:17:48.839Z,16.43
2017-08-27T10:20:16.349Z,15.80
2017-08-27T10:22:43.811Z,15.93
2017-08-27T10:25:11.395Z,14.47
2017-08-27T10:27:38.841Z,15.47
2017-08-27T10:30:06.331Z,13.87
2017-08-27T10:32:33.818Z,14.73
2017-08-27T10:35:01.333Z,14.45
2017-08-27T10:37:29.525Z,14.97
2017-08-27T10:39:57.027Z,13.63
2017-08-27T10:42:25.249Z,14.43
2017-08-27T10:44:52.800Z,14.27
2017-08-27T10:47:20.295Z,14.17
2017-08-27T10:49:47.804Z,12.60
2017-08-27T10:52:15.302Z,12.33
2017-08-27T10:54:42.815Z,12.90
2017-08-27T10:57:11.231Z,13.40
2017-08-27T10:59:38.884Z,13.00
2017-08-27T11:02:06.391Z,13.07
2017-08-27T11:04:33.869Z,12.48
2017-08-27T11:07:01.387Z,13.93
2017-08-27T11:09:28.870Z,13.40
2017-08-27T11:11:56.368Z,13.68
2017-08-27T11:14:23.830Z,12.53
2017-08-27T11:16:51.396Z,13.07
2017-08-27T11:19:18.862Z,12.40
2017-08-27T11:21:46.327Z,13.40
2017-08-27T11:24:13.858Z,11.83
2017-08-27T11:26:41.424Z,12.27
2017-08-27T11:29:08.934Z,12.10
2017-08-27T11:31:36.429Z,12.25
2017-08-27T11:34:04.639Z,12.37
2017-08-27T11:36:32.152Z,11.67
2017-08-27T11:38:59.642Z,11.70
2017-08-27T11:41:27.536Z,12.30
2017-08-27T11:43:55.039Z,12.20
2017-08-27T11:46:22.562Z,11.73
2017-08-27T11:48:50.415Z,11.10
2017-08-27T11:51:17.925Z,11.33
2017-08-27T11:53:45.406Z,11.57
2017-08-27T11:56:12.944Z,10.80
2017-08-27T11:58:40.426Z,11.30
2017-08-27T12:01:07.958Z,11.27
2017-08-27T12:03:35.433Z,10.90
2017-08-27T12:06:02.925Z,12.17
2017-08-27T12:08:30.410Z,11.07
2017-08-27T12:10:57.883Z,10.65
2017-08-27T12:13:25.375Z,10.60
2017-08-27T12:15:52.859Z,10.50
2017-08-27T12:18:20.350Z,10.20
2017-08-27T12:20:47.841Z,10.90
2017-08-27T12:23:15.366Z,10.67
2017-08-27T12:25:42.892Z,10.48
2017-08-27T12:28:11.226Z,11.18
2017-08-27T12:30:38.781Z,11.93
2017-08-27T12:33:06.252Z,11.37
2017-08-27T12:35:33.789Z,12.13
2017-08-27T12:38:01.259Z,10.73
2017-08-27T12:40:28.782Z,11.13
2017-08-27T12:42:56.247Z,11.00
2017-08-27T12:45:23.788Z,10.80
2017-08-27T12:47:51.295Z,11.20
2017-08-27T12:50:18.807Z,10.80
2017-08-27T12:52:46.307Z,10.83
2017-08-27T12:55:13.786Z,10.52
2017-08-27T12:57:42.164Z,11.33
2017-08-27T13:00:11.070Z,9.98
2017-08-27T13:02:38.759Z,9.47
2017-08-27T13:05:06.428Z,11.83
2017-08-27T13:07:34.056Z,11.50
2017-08-27T13:10:01.536Z,10.80
2017-08-27T13:12:29.020Z,9.73
2017-08-27T13:14:56.519Z,10.50
2017-08-27T13:17:24.027Z,9.82
2017-08-27T13:19:51.543Z,11.50
2017-08-27T13:22:19.041Z,10.33
2017-08-27T13:24:46.543Z,10.33
2017-08-27T13:27:14.014Z,10.30
2017-08-27T13:29:41.526Z,10.13
2017-08-27T13:32:08.989Z,11.00
2017-08-27T13:34:36.476Z,10.87
2017-08-27T13:37:03.947Z,10.30
2017-08-27T13:39:31.438Z,10.43
2017-08-27T13:41:58.919Z,10.80
2017-08-27T13:44:26.459Z,10.60
2017-08-27T13:46:54.656Z,9.83
2017-08-27T13:49:22.194Z,10.67
2017-08-27T13:51:49.717Z,10.60
2017-08-27T13:54:17.214Z,10.60
2017-08-27T13:56:44.721Z,11.10
2017-08-27T13:59:12.213Z,10.80
2017-08-27T14:01:39.734Z,12.30
2017-08-27T14:04:07.219Z,10.93
2017-08-27T14:06:34.726Z,10.40
2017-08-27T14:09:02.203Z,10.53
2017-08-27T14:11:29.723Z,11.40
2017-08-27T14:13:57.186Z,11.50
2017-08-27T14:16:24.674Z,10.10
2017-08-27T14:18:52.392Z,10.73
2017-08-27T14:21:19.908Z,11.17
2017-08-27T14:23:47.413Z,10.47
2017-08-27T14:26:14.877Z,11.10
2017-08-27T14:28:42.375Z,10.23
2017-08-27T14:31:09.880Z,11.27
2017-08-27T14:33:37.441Z,12.97
2017-08-27T14:36:05.421Z,10.97
2017-08-27T14:38:32.929Z,11.07
2017-08-27T14:41:00.389Z,10.87
2017-08-27T14:43:27.885Z,11.00
2017-08-27T14:45:55.375Z,12.13
2017-08-27T14:48:22.850Z,10.90
2017-08-27T14:50:50.395Z,11.20
2017-08-27T14:53:17.887Z,10.80
2017-08-27T14:55:45.500Z,11.03
2017-08-27T14:58:12.987Z,10.70
2017-08-27T15:00:40.479Z,11.43
2017-08-27T15:03:08.075Z,10.60
2017-08-27T15:05:36.519Z,11.03
2017-08-27T15:08:04.041Z,10.83
2017-08-27T15:10:31.525Z,11.70
2017-08-27T15:12:59.047Z,11.43
2017-08-27T15:15:26.522Z,11.43
2017-08-27T15:17:54.878Z,11.20
2017-08-27T15:20:22.413Z,10.80
2017-08-27T15:22:49.910Z,10.43
2017-08-27T15:25:17.403Z,10.60
2017-08-27T15:27:45.424Z,9.50
2017-08-27T15:30:14.221Z,11.17
2017-08-27T15:32:41.988Z,9.83
2017-08-27T15:35:09.532Z,10.10
2017-08-27T15:37:37.013Z,10.77
2017-08-27T15:40:04.518Z,11.77
2017-08-27T15:42:32.015Z,10.90
2017-08-27T15:44:59.556Z,11.83
2017-08-27T15:47:27.914Z,11.97
2017-08-27T15:49:55.412Z,12.67
2017-08-27T15:52:22.934Z,11.80
2017-08-27T15:54:50.437Z,10.40
2017-08-27T15:57:17.960Z,11.50
2017-08-27T15:59:45.492Z,11.70
2017-08-27T16:02:13.059Z,13.23
2017-08-27T16:04:40.536Z,13.00
2017-08-27T16:07:08.065Z,13.63
2017-08-27T16:09:35.563Z,13.07
2017-08-27T16:12:03.090Z,14.07
2017-08-27T16:14:30.618Z,13.83
2017-08-27T16:16:58.141Z,13.03
2017-08-27T16:19:25.656Z,13.53
2017-08-27T16:21:53.200Z,12.70
2017-08-27T16:24:20.689Z,14.43
2017-08-27T16:26:48.211Z,13.30
2017-08-27T16:29:15.787Z,13.20
2017-08-27T16:31:43.258Z,14.70
2017-08-27T16:34:10.787Z,13.73
2017-08-27T16:36:38.269Z,12.93
2017-08-27T16:39:05.797Z,14.47
2017-08-27T16:41:33.329Z,14.07
2017-08-27T16:44:00.861Z,15.80
2017-08-27T16:46:28.372Z,16.97
2017-08-27T16:48:56.586Z,17.57
2017-08-27T16:51:24.129Z,15.90
2017-08-27T16:53:51.647Z,16.70
2017-08-27T16:56:23.147Z,16.30
2017-08-27T16:58:50.658Z,16.40
2017-08-27T17:01:19.019Z,15.90
2017-08-27T17:03:46.511Z,17.47
2017-08-27T17:06:14.049Z,17.70
2017-08-27T17:08:41.500Z,18.00
2017-08-27T17:11:09.029Z,17.00
2017-08-27T17:13:36.506Z,18.77
2017-08-27T17:16:04.009Z,16.00
2017-08-27T17:18:31.539Z,19.00
2017-08-27T17:20:58.994Z,16.40
2017-08-27T17:23:26.496Z,17.20
2017-08-27T17:25:53.968Z,17.70
2017-08-27T17:28:21.472Z,17.10
2017-08-27T17:30:48.980Z,17.33
2017-08-27T17:33:16.481Z,16.53
2017-08-27T17:35:44.111Z,16.50
2017-08-27T17:38:11.600Z,15.97
2017-08-27T17:40:39.090Z,15.83
2017-08-27T17:43:06.610Z,13.33
2017-08-27T17:45:34.136Z,14.73
2017-08-27T17:48:01.638Z,14.70
2017-08-27T17:50:29.153Z,14.80
2017-08-27T17:52:56.629Z,15.00
2017-08-27T17:55:24.154Z,14.97
2017-08-27T17:57:51.641Z,14.70
2017-08-27T18:00:19.319Z,15.80
2017-08-27T18:02:46.810Z,15.27
2017-08-27T18:05:14.316Z,15.90
2017-08-27T18:07:41.855Z,15.60
2017-08-27T18:10:10.333Z,15.87
2017-08-27T18:12:37.827Z,16.70
2017-08-27T18:15:05.295Z,18.60
2017-08-27T18:17:32.824Z,17.20
2017-08-27T18:20:00.318Z,16.00
2017-08-27T18:22:27.843Z,15.30
2017-08-27T18:24:55.332Z,16.97
2017-08-27T18:27:22.882Z,16.17
2017-08-27T18:29:50.506Z,17.83
2017-08-27T18:32:17.973Z,17.07
2017-08-27T18:34:45.595Z,16.00
2017-08-27T18:37:13.792Z,16.50
2017-08-27T18:39:41.282Z,15.97
2017-08-27T18:42:08.853Z,16.73
2017-08-27T18:44:36.354Z,17.30
2017-08-27T18:47:06.916Z,19.03
2017-08-27T18:49:34.406Z,17.80
2017-08-27T18:52:01.932Z,17.13
2017-08-27T18:54:29.465Z,16.70
2017-08-27T18:56:56.960Z,16.17
2017-08-27T18:59:24.479Z,16.07
2017-08-27T19:01:52.293Z,15.90
2017-08-27T19:04:19.806Z,16.50
2017-08-27T19:06:47.332Z,15.43
2017-08-27T19:09:14.902Z,17.43
2017-08-27T19:11:42.509Z,17.47
2017-08-27T19:14:09.988Z,17.27
2017-08-27T19:16:37.494Z,15.80
2017-08-27T19:19:05.041Z,16.40
2017-08-27T19:21:43.965Z,17.37
2017-08-27T19:24:11.455Z,16.03
2017-08-27T19:26:39.528Z,15.97
2017-08-27T19:29:07.018Z,16.40
2017-08-27T19:31:34.491Z,15.93
2017-08-27T19:34:01.989Z,16.37
2017-08-27T19:36:29.515Z,15.60
2017-08-27T19:38:57.070Z,15.10
2017-08-27T19:41:25.660Z,16.60
2017-08-27T19:43:53.198Z,15.87
2017-08-27T19:46:20.729Z,16.07
2017-08-27T19:48:48.258Z,16.37
2017-08-27T19:51:15.739Z,16.00
2017-08-27T19:53:48.110Z,16.90
2017-08-27T19:56:15.594Z,15.77
2017-08-27T19:58:43.083Z,16.27
2017-08-27T20:01:10.587Z,15.83
2017-08-27T20:03:38.093Z,15.90
2017-08-27T20:06:05.609Z,15.30
2017-08-27T20:08:33.083Z,16.57
2017-08-27T20:11:00.715Z,16.60
2017-08-27T20:13:28.222Z,17.00
2017-08-27T20:15:55.792Z,17.57
2017-08-27T20:18:29.841Z,16.07
2017-08-27T20:20:57.349Z,16.40
2017-08-27T20:23:24.827Z,15.70
2017-08-27T20:25:52.327Z,33.03
2017-08-27T20:28:19.845Z,17.70
2017-08-27T20:30:47.426Z,16.20
2017-08-27T20:33:25.579Z,16.83
2017-08-27T20:35:53.116Z,16.40
2017-08-27T20:38:20.613Z,15.83
2017-08-27T20:40:48.073Z,12.80
2017-08-27T20:43:15.572Z,13.70
2017-08-27T20:45:43.045Z,13.83
2017-08-27T20:48:10.553Z,14.60
2017-08-27T20:50:38.078Z,15.30
2017-08-27T20:53:05.574Z,14.90
2017-08-27T20:55:33.129Z,14.70
2017-08-27T20:58:00.625Z,15.00
2017-08-27T21:00:28.134Z,15.17
2017-08-27T21:02:57.802Z,14.30
2017-08-27T21:05:25.312Z,15.43
2017-08-27T21:07:52.857Z,15.93
2017-08-27T21:10:20.769Z,14.53
2017-08-27T21:12:48.306Z,15.40
2017-08-27T21:15:15.807Z,15.10
2017-08-27T21:17:43.551Z,14.40
2017-08-27T21:20:11.019Z,15.57
2017-08-27T21:22:38.525Z,15.10
2017-08-27T21:25:06.002Z,15.40
2017-08-27T21:27:33.890Z,16.40
2017-08-27T21:30:01.357Z,16.73
2017-08-27T21:32:28.884Z,16.23
2017-08-27T21:34:56.347Z,17.13
2017-08-27T21:37:23.875Z,17.13
2017-08-27T21:39:51.362Z,17.40
2017-08-27T21:42:20.316Z,17.60
2017-08-27T21:44:47.831Z,17.20
2017-08-27T21:47:17.710Z,17.98
2017-08-27T21:49:45.248Z,17.70
2017-08-27T21:52:12.793Z,18.10
2017-08-27T21:54:40.312Z,18.33
2017-08-27T21:57:08.490Z,20.40
2017-08-27T21:59:35.971Z,18.50
2017-08-27T22:02:04.026Z,18.10
2017-08-27T22:04:31.526Z,18.50
2017-08-27T22:06:59.761Z,18.00
2017-08-27T22:09:27.242Z,18.87
2017-08-27T22:11:54.819Z,18.70
2017-08-27T22:14:22.338Z,19.87
2017-08-27T22:16:49.803Z,18.30
2017-08-27T22:19:17.308Z,18.65
2017-08-27T22:21:44.806Z,18.27
2017-08-27T22:24:12.335Z,18.67
2017-08-27T22:26:39.852Z,18.07
2017-08-27T22:29:07.346Z,18.70
2017-08-27T22:31:38.395Z,19.00
2017-08-27T22:34:06.597Z,18.90
2017-08-27T22:36:34.069Z,18.60
2017-08-27T22:39:01.538Z,17.37
2017-08-27T22:41:29.044Z,19.17
2017-08-27T22:44:07.283Z,18.90
2017-08-27T22:46:34.787Z,18.57
2017-08-27T22:49:02.253Z,18.47
2017-08-27T22:51:29.769Z,18.33
2017-08-27T22:53:57.262Z,19.47
2017-08-27T22:56:24.778Z,19.20
2017-08-27T22:58:52.286Z,19.07
2017-08-27T23:01:20.138Z,18.73
2017-08-27T23:03:47.600Z,19.03
2017-08-27T23:06:15.092Z,19.48
2017-08-27T23:08:42.607Z,18.93
2017-08-27T23:11:10.078Z,18.33
2017-08-27T23:13:37.628Z,18.40
2017-08-27T23:16:05.094Z,18.13
2017-08-27T23:18:32.624Z,18.57
2017-08-27T23:21:00.132Z,18.57
2017-08-27T23:23:27.639Z,18.58
2017-08-27T23:25:55.155Z,18.97
2017-08-27T23:28:22.738Z,19.47
2017-08-27T23:30:50.229Z,19.60
2017-08-27T23:33:17.711Z,19.30
2017-08-27T23:35:45.245Z,19.30
2017-08-27T23:38:12.820Z,19.55
2017-08-27T23:40:40.350Z,19.27
2017-08-27T23:43:07.847Z,18.70
2017-08-27T23:45:35.358Z,18.97
2017-08-27T23:48:10.003Z,19.40
2017-08-27T23:50:37.671Z,20.07
2017-08-27T23:53:05.471Z,18.87
2017-08-27T23:55:32.930Z,19.57
2017-08-27T23:58:00.441Z,19.83
